Time;durP1;ratioP1;P1;durP2;ratioP2;P2;SDS_P1;SDS_P2;PMS_P1;PMS_P2;Temp;Humidity;BMP_temperature;BMP_pressure;BME280_temperature;BME280_humidity;BME280_pressure;Samples;Min_cycle;Max_cycle;Signal;HPM_P1;HPM_P2
2021/12/31 00:02:29;;;;;;;3.22;3.03;;;10.90;99.90;;;11.81;100.00;98574.19;5181431;28;20229;-66
2021/12/31 00:05:04;;;;;;;3.53;3.30;;;11.00;99.90;;;11.82;100.00;98570.88;5180999;28;20209;-66
2021/12/31 00:07:38;;;;;;;3.38;3.08;;;11.00;99.90;;;11.79;100.00;98565.50;5180845;28;20208;-65
2021/12/31 00:10:11;;;;;;;3.47;3.17;;;10.90;99.90;;;11.78;100.00;98574.88;5183754;28;20221;-66
2021/12/31 00:12:44;;;;;;;3.30;3.10;;;11.00;99.90;;;11.78;100.00;98566.31;5186390;28;20564;-66
2021/12/31 00:15:20;;;;;;;3.28;3.00;;;10.90;99.90;;;11.80;100.00;98562.19;5180241;28;20210;-65
2021/12/31 00:17:54;;;;;;;3.30;3.10;;;11.00;99.90;;;11.78;100.00;98566.31;5181642;28;20282;-65
2021/12/31 00:20:28;;;;;;;3.30;3.10;;;10.90;99.90;;;11.80;100.00;98564.75;5182788;28;20201;-65
2021/12/31 00:23:07;;;;;;;4.20;2.97;;;10.90;99.90;;;11.62;100.00;98567.03;5183120;28;20706;-65
2021/12/31 00:25:43;;;;;;;3.05;2.75;;;10.80;99.90;;;11.62;100.00;98580.72;5181149;28;20203;-65
2021/12/31 00:28:16;;;;;;;3.40;3.10;;;10.80;99.90;;;11.61;100.00;98565.22;5183937;28;20220;-66
2021/12/31 00:30:53;;;;;;;4.45;3.30;;;10.80;99.90;;;11.64;100.00;98573.13;5178826;28;20553;-65
2021/12/31 00:33:27;;;;;;;3.35;3.15;;;10.80;99.90;;;11.54;100.00;98574.19;5181117;28;20790;-65
2021/12/31 00:36:00;;;;;;;3.50;3.20;;;10.80;99.90;;;11.55;100.00;98572.53;5178680;28;20577;-65
2021/12/31 00:38:33;;;;;;;3.00;2.80;;;10.80;99.90;;;11.58;100.00;98573.59;5181706;28;20213;-65
2021/12/31 00:41:07;;;;;;;3.50;3.20;;;10.80;99.90;;;11.58;100.00;98571.03;5181468;28;20202;-65
2021/12/31 00:43:40;;;;;;;3.05;2.80;;;10.80;99.90;;;11.63;100.00;98577.34;5183995;28;20617;-65
2021/12/31 00:46:13;;;;;;;3.45;3.15;;;10.80;99.90;;;11.62;100.00;98579.84;5188106;28;20198;-66
2021/12/31 00:48:47;;;;;;;4.80;3.08;;;10.90;99.90;;;11.61;100.00;98572.91;5183495;28;20207;-65
2021/12/31 00:51:20;;;;;;;4.65;3.20;;;10.80;99.90;;;11.65;100.00;98573.22;5179166;28;20223;-65
2021/12/31 00:53:54;;;;;;;3.33;3.03;;;10.80;99.90;;;11.65;100.00;98568.09;5181140;28;20217;-66
2021/12/31 00:56:27;;;;;;;5.35;3.42;;;10.90;99.90;;;11.63;100.00;98571.34;5182994;28;20260;-66
2021/12/31 00:59:00;;;;;;;3.40;3.05;;;10.80;99.90;;;11.65;100.00;98572.34;5182762;28;20195;-66
2021/12/31 01:01:35;;;;;;;3.50;3.20;;;10.80;99.90;;;11.62;100.00;98580.72;5181205;28;20633;-65
2021/12/31 01:04:10;;;;;;;3.78;3.47;;;10.80;99.90;;;11.65;100.00;98585.16;5181717;28;20210;-65
2021/12/31 01:06:43;;;;;;;3.25;3.00;;;10.80;99.90;;;11.59;100.00;98579.59;5181529;28;20209;-65
2021/12/31 01:09:16;;;;;;;3.30;3.00;;;10.80;99.90;;;11.63;100.00;98581.59;5182791;28;20202;-65
2021/12/31 01:11:50;;;;;;;3.63;3.33;;;10.80;99.90;;;11.65;100.00;98591.16;5179383;28;20429;-65
2021/12/31 01:14:29;;;;;;;3.70;3.40;;;10.90;99.90;;;11.65;100.00;98590.28;5179724;28;20199;-65
2021/12/31 01:17:06;;;;;;;4.25;3.50;;;10.80;99.90;;;11.59;100.00;98585.63;5181047;28;20198;-65
2021/12/31 01:19:47;;;;;;;3.75;3.30;;;10.80;99.90;;;11.63;100.00;98592.72;5182136;28;20210;-65
2021/12/31 01:22:24;;;;;;;3.78;3.40;;;10.90;99.90;;;11.61;100.00;98588.28;5186499;28;20234;-65
2021/12/31 01:24:59;;;;;;;3.53;3.22;;;10.80;99.90;;;11.60;100.00;98592.53;5180606;28;20286;-66
2021/12/31 01:27:32;;;;;;;3.83;3.25;;;10.80;99.90;;;11.60;100.00;98591.63;5181748;28;20210;-65
2021/12/31 01:30:09;;;;;;;3.55;3.25;;;10.80;99.90;;;11.60;100.00;98597.63;5181680;28;20542;-66
2021/12/31 01:32:42;;;;;;;3.83;3.63;;;10.80;99.90;;;11.59;100.00;98589.84;5181531;28;20780;-66
2021/12/31 01:35:19;;;;;;;3.92;3.63;;;10.80;99.90;;;11.57;100.00;98594.88;5180679;28;20217;-66
2021/12/31 01:37:52;;;;;;;3.33;3.13;;;10.80;99.90;;;11.59;100.00;98598.44;5179893;28;20202;-65
2021/12/31 01:40:25;;;;;;;3.70;3.10;;;10.90;99.90;;;11.60;100.00;98597.63;5181454;28;20208;-66
2021/12/31 01:42:59;;;;;;;3.67;3.40;;;10.90;99.90;;;11.56;100.00;98598.25;5181118;28;20248;-66
2021/12/31 01:45:34;;;;;;;3.45;3.22;;;10.80;99.90;;;11.55;100.00;98588.75;5180151;28;20201;-65
2021/12/31 01:48:08;;;;;;;3.22;2.95;;;10.80;99.90;;;11.53;100.00;98592.00;5182688;28;20210;-65
2021/12/31 01:50:42;;;;;;;3.78;3.47;;;10.80;99.90;;;11.52;100.00;98591.13;5178253;28;20213;-65
2021/12/31 01:53:16;;;;;;;3.60;3.30;;;10.70;99.90;;;11.52;100.00;98593.69;5180471;28;20739;-66
2021/12/31 01:55:52;;;;;;;3.10;2.90;;;10.70;99.90;;;11.52;100.00;98588.56;5180581;28;20586;-66
2021/12/31 01:58:27;;;;;;;3.03;2.83;;;10.70;99.90;;;11.50;100.00;98590.13;5178920;28;20695;-66
2021/12/31 02:01:04;;;;;;;4.63;2.85;;;10.70;99.90;;;11.49;100.00;98588.38;5177532;28;20194;-65
2021/12/31 02:03:39;;;;;;;3.38;3.17;;;10.70;99.90;;;11.47;100.00;98590.84;5182380;28;20611;-66
2021/12/31 02:06:13;;;;;;;3.17;2.78;;;10.70;99.90;;;11.49;100.00;98585.81;5179366;28;20198;-65
2021/12/31 02:08:46;;;;;;;3.25;3.05;;;10.70;99.90;;;11.46;100.00;98593.28;5177803;28;20212;-65
2021/12/31 02:11:21;;;;;;;3.30;3.00;;;10.70;99.90;;;11.42;100.00;98583.66;5182553;28;20209;-66
2021/12/31 02:13:54;;;;;;;2.80;2.70;;;10.60;99.90;;;11.39;100.00;98592.03;5180634;28;20202;-65
2021/12/31 02:16:28;;;;;;;3.08;2.88;;;10.60;99.90;;;11.33;100.00;98585.59;5180512;28;20318;-65
2021/12/31 02:19:12;;;;;;;3.45;2.65;;;10.60;99.90;;;11.28;100.00;98588.75;5179323;28;20215;-65
2021/12/31 02:21:47;;;;;;;3.42;2.90;;;10.50;99.90;;;11.21;100.00;98589.09;5180144;28;20232;-66
2021/12/31 02:24:22;;;;;;;3.28;3.08;;;10.40;99.90;;;11.11;100.00;98584.19;5181258;28;20202;-65
2021/12/31 02:26:55;;;;;;;3.50;3.30;;;10.40;99.90;;;11.14;100.00;98588.63;5179950;28;20214;-66
2021/12/31 02:29:28;;;;;;;3.50;3.30;;;10.40;99.90;;;11.14;100.00;98586.94;5178061;28;20198;-66
2021/12/31 02:32:01;;;;;;;3.95;3.67;;;10.40;99.90;;;11.12;100.00;98582.50;5179957;28;20222;-65
2021/12/31 02:34:34;;;;;;;3.65;3.28;;;10.30;99.90;;;11.04;100.00;98584.53;5179392;28;20198;-65
2021/12/31 02:37:09;;;;;;;3.08;2.80;;;10.30;99.90;;;10.96;100.00;98573.81;5179060;28;20249;-66
2021/12/31 02:39:43;;;;;;;3.70;3.42;;;10.20;99.90;;;10.92;100.00;98582.06;5180313;28;20202;-65
2021/12/31 02:42:16;;;;;;;3.58;3.28;;;10.10;99.90;;;10.83;100.00;98582.31;5180475;28;20226;-65
2021/12/31 02:44:51;;;;;;;3.40;3.13;;;10.10;99.90;;;10.75;100.00;98583.47;5177595;28;20199;-65
2021/12/31 02:47:24;;;;;;;3.13;2.88;;;10.00;99.90;;;10.63;100.00;98585.19;5181381;28;20198;-65
2021/12/31 02:49:57;;;;;;;2.55;2.42;;;9.80;99.90;;;10.54;100.00;98580.34;5179568;28;20199;-66
2021/12/31 02:52:32;;;;;;;3.33;3.13;;;9.80;99.90;;;10.52;100.00;98575.91;5181089;28;20310;-66
2021/12/31 02:55:07;;;;;;;3.03;2.83;;;9.70;99.90;;;10.52;100.00;98571.69;5177693;28;20198;-65
2021/12/31 02:57:42;;;;;;;3.20;3.00;;;9.80;99.90;;;10.52;100.00;98569.13;5180384;28;20193;-66
2021/12/31 03:00:16;;;;;;;2.60;2.40;;;9.80;99.90;;;10.46;100.00;98568.72;5180820;28;20202;-65
2021/12/31 03:02:50;;;;;;;3.35;3.15;;;9.70;99.90;;;10.38;100.00;98557.94;5179778;28;20218;-66
2021/12/31 03:05:24;;;;;;;3.13;2.92;;;9.60;99.90;;;10.29;100.00;98556.44;5178799;28;20559;-65
2021/12/31 03:08:00;;;;;;;3.22;2.92;;;9.50;99.90;;;10.24;100.00;98566.28;5175973;28;20568;-65
2021/12/31 03:10:34;;;;;;;3.35;3.10;;;9.50;99.90;;;10.20;100.00;98568.53;5180830;28;20199;-65
2021/12/31 03:13:08;;;;;;;3.60;3.30;;;9.40;99.90;;;10.11;100.00;98563.69;5179723;28;20232;-65
2021/12/31 03:15:43;;;;;;;3.42;3.22;;;9.30;99.90;;;10.05;100.00;98563.25;5178884;28;20226;-66
2021/12/31 03:18:18;;;;;;;4.18;3.25;;;9.30;99.90;;;9.91;100.00;98552.06;5181273;28;20289;-65
2021/12/31 03:21:01;;;;;;;2.85;2.60;;;9.20;99.90;;;9.86;100.00;98558.50;5178591;28;20209;-65
2021/12/31 03:23:35;;;;;;;3.65;3.30;;;9.10;99.90;;;9.79;100.00;98554.63;5177787;28;20762;-65
2021/12/31 03:26:08;;;;;;;3.28;2.97;;;9.00;99.90;;;9.73;100.00;98554.22;5179755;28;20202;-65
2021/12/31 03:28:41;;;;;;;3.00;2.80;;;9.00;99.90;;;9.63;100.00;98560.28;5183304;28;20198;-65
2021/12/31 03:31:15;;;;;;;3.67;2.90;;;8.90;99.90;;;9.61;100.00;98558.41;5185273;28;20202;-65
2021/12/31 03:33:48;;;;;;;3.28;3.00;;;8.90;99.90;;;9.57;100.00;98569.19;5184900;28;20592;-65
2021/12/31 03:36:21;;;;;;;3.28;3.00;;;8.80;99.90;;;9.55;100.00;98563.06;5191327;28;20218;-65
2021/12/31 03:38:55;;;;;;;3.70;3.40;;;8.80;99.90;;;9.48;100.00;98566.84;5186837;28;20675;-65
2021/12/31 03:41:28;;;;;;;3.55;3.17;;;8.70;99.90;;;9.29;100.00;98564.63;5187097;28;20194;-66
2021/12/31 03:44:02;;;;;;;2.55;2.38;;;8.60;99.90;;;9.31;100.00;98565.63;5182929;28;20213;-65
2021/12/31 03:46:35;;;;;;;4.18;2.92;;;8.50;99.90;;;9.26;100.00;98569.50;5183437;28;20203;-65
2021/12/31 03:49:08;;;;;;;3.30;3.10;;;8.50;99.90;;;9.21;100.00;98575.91;5182495;28;20207;-65
2021/12/31 03:51:41;;;;;;;3.47;3.28;;;8.50;99.90;;;9.18;100.00;98578.25;5183408;28;20222;-65
2021/12/31 03:54:16;;;;;;;3.08;2.80;;;8.40;99.90;;;9.17;100.00;98579.91;5183826;28;20206;-65
2021/12/31 03:56:49;;;;;;;3.63;3.33;;;8.30;99.90;;;9.11;100.00;98573.47;5182138;28;20595;-65
2021/12/31 03:59:22;;;;;;;3.00;2.80;;;8.30;99.90;;;9.04;100.00;98567.00;5182917;28;20202;-65
2021/12/31 04:01:55;;;;;;;3.33;2.88;;;8.30;99.90;;;8.92;100.00;98568.66;5181998;28;20218;-65
2021/12/31 04:04:28;;;;;;;3.33;3.13;;;8.10;99.90;;;8.87;100.00;98573.44;5182606;28;20203;-65
2021/12/31 04:07:02;;;;;;;3.08;2.92;;;8.10;99.90;;;8.83;100.00;98568.84;5182949;28;20203;-65
2021/12/31 04:09:36;;;;;;;3.55;3.25;;;8.10;99.90;;;8.71;100.00;98575.59;5181540;28;20203;-65
2021/12/31 04:12:10;;;;;;;3.92;2.95;;;8.00;99.90;;;8.74;100.00;98573.28;5180289;28;20232;-65
2021/12/31 04:14:43;;;;;;;3.75;3.55;;;8.00;99.90;;;8.74;100.00;98578.38;5179880;28;20575;-65
2021/12/31 04:17:16;;;;;;;3.70;3.40;;;8.00;99.90;;;8.68;100.00;98576.25;5183773;28;20229;-65
2021/12/31 04:19:54;;;;;;;4.03;3.30;;;7.90;99.90;;;8.63;100.00;98569.91;5179449;28;20341;-65
2021/12/31 04:22:30;;;;;;;3.67;3.30;;;7.90;99.90;;;8.60;100.00;98574.75;5182888;28;20321;-65
2021/12/31 04:25:05;;;;;;;3.45;3.25;;;7.90;99.90;;;8.45;100.00;98569.41;5181570;28;20206;-65
2021/12/31 04:27:39;;;;;;;3.40;3.20;;;7.70;99.90;;;8.46;100.00;98577.91;5184130;28;20197;-65
2021/12/31 04:30:13;;;;;;;3.55;3.17;;;7.70;99.90;;;8.44;100.00;98580.38;5182953;28;20194;-65
2021/12/31 04:32:46;;;;;;;3.40;3.10;;;7.70;99.90;;;8.39;100.00;98575.69;5181769;28;20217;-66
2021/12/31 04:35:19;;;;;;;3.58;3.28;;;7.70;99.90;;;8.37;100.00;98572.09;5182654;28;20217;-65
2021/12/31 04:37:52;;;;;;;3.60;3.38;;;7.60;99.90;;;8.34;100.00;98573.63;5182938;28;20317;-65
2021/12/31 04:40:27;;;;;;;5.63;3.50;;;7.60;99.90;;;8.31;100.00;98568.28;5184659;28;20201;-65
2021/12/31 04:43:00;;;;;;;3.80;3.50;;;7.60;99.90;;;8.21;100.00;98570.00;5180868;28;20225;-65
2021/12/31 04:45:33;;;;;;;4.80;3.50;;;7.50;99.90;;;8.18;100.00;98578.28;5180114;28;20285;-66
2021/12/31 04:48:06;;;;;;;3.50;3.20;;;7.50;99.90;;;8.16;100.00;98579.84;5183947;28;20211;-65
2021/12/31 04:50:39;;;;;;;3.67;3.00;;;7.50;99.90;;;8.11;100.00;98568.41;5183209;28;20206;-65
2021/12/31 04:53:13;;;;;;;3.37;3.17;;;7.40;99.90;;;8.12;100.00;98568.50;5182338;28;20623;-65
2021/12/31 04:55:47;;;;;;;3.55;3.25;;;7.40;99.90;;;8.10;100.00;98570.09;5183590;28;20647;-65
2021/12/31 04:58:20;;;;;;;3.05;2.85;;;7.40;99.90;;;8.06;100.00;98568.03;5182362;28;20722;-65
2021/12/31 05:00:53;;;;;;;2.88;2.65;;;7.40;99.90;;;8.00;100.00;98570.13;5181083;28;20205;-65
2021/12/31 05:03:26;;;;;;;2.80;2.60;;;7.40;99.90;;;8.00;100.00;98570.13;5182672;28;20219;-65
2021/12/31 05:05:59;;;;;;;2.95;2.78;;;7.30;99.90;;;7.99;100.00;98563.25;5181809;28;20199;-65
2021/12/31 05:08:32;;;;;;;2.87;2.60;;;7.30;99.90;;;7.94;100.00;98574.72;5184124;28;20199;-65
2021/12/31 05:11:07;;;;;;;2.87;2.67;;;7.30;99.90;;;7.90;100.00;98568.53;5183143;28;20202;-65
2021/12/31 05:13:40;;;;;;;3.17;2.97;;;7.30;99.90;;;7.88;100.00;98572.59;5184292;28;20228;-65
2021/12/31 05:16:13;;;;;;;3.00;2.90;;;7.30;99.90;;;7.86;100.00;98571.56;5182339;28;20202;-65
2021/12/31 05:18:46;;;;;;;3.07;2.77;;;7.30;99.90;;;7.87;100.00;98563.19;5179340;28;20218;-65
2021/12/31 05:21:19;;;;;;;2.90;2.70;;;7.20;99.90;;;7.85;100.00;98571.47;5181607;28;20206;-66
2021/12/31 05:23:52;;;;;;;2.70;2.60;;;7.10;99.90;;;7.81;100.00;98571.97;5177935;28;20213;-65
2021/12/31 05:26:27;;;;;;;2.70;2.50;;;7.10;99.90;;;7.76;100.00;98573.28;5183153;28;20298;-65
2021/12/31 05:29:02;;;;;;;3.07;2.80;;;7.10;99.90;;;7.69;100.00;98579.53;5181241;28;20216;-65
2021/12/31 05:31:35;;;;;;;2.63;2.42;;;7.00;99.90;;;7.66;100.00;98576.75;5181669;28;20253;-65
2021/12/31 05:34:08;;;;;;;3.10;2.90;;;7.00;99.90;;;7.62;100.00;98578.16;5176692;28;20237;-65
2021/12/31 05:36:41;;;;;;;2.87;2.67;;;6.90;99.90;;;7.59;100.00;98583.00;5179970;28;20233;-65
2021/12/31 05:39:14;;;;;;;3.97;3.70;;;6.90;99.90;;;7.56;100.00;98587.84;5182523;28;20563;-65
2021/12/31 05:41:49;;;;;;;4.80;4.50;;;6.80;99.90;;;7.53;100.00;98572.34;5180777;28;20215;-65
2021/12/31 05:44:22;;;;;;;5.63;5.22;;;6.80;99.90;;;7.45;100.00;98578.47;5182100;28;20216;-65
2021/12/31 05:46:57;;;;;;;4.87;4.50;;;6.80;99.90;;;7.48;100.00;98578.72;5181695;28;20201;-65
2021/12/31 05:49:33;;;;;;;4.03;3.73;;;6.80;99.90;;;7.41;100.00;98573.88;5181154;28;20206;-65
2021/12/31 05:52:07;;;;;;;4.07;3.77;;;6.80;99.90;;;7.49;100.00;98580.47;5181904;28;20218;-65
2021/12/31 05:54:40;;;;;;;3.63;3.43;;;6.80;99.90;;;7.50;100.00;98572.09;5180973;28;20212;-64
2021/12/31 05:57:15;;;;;;;3.80;3.53;;;6.80;99.90;;;7.48;100.00;98566.00;5183025;28;20226;-65
2021/12/31 05:59:48;;;;;;;3.07;2.87;;;6.80;99.90;;;7.49;100.00;98562.66;5179266;28;20203;-65
2021/12/31 06:02:21;;;;;;;3.20;3.00;;;6.70;99.90;;;7.34;100.00;98557.25;5181266;28;21645;-65
2021/12/31 06:04:54;;;;;;;3.30;3.10;;;6.60;99.90;;;7.31;100.00;98559.53;5180212;28;20202;-65
2021/12/31 06:07:27;;;;;;;4.10;3.67;;;6.60;99.90;;;7.35;100.00;98565.75;5181058;28;20195;-65
2021/12/31 06:10:01;;;;;;;4.37;4.07;;;6.70;99.90;;;7.33;100.00;98564.78;5181681;28;20198;-64
2021/12/31 06:12:37;;;;;;;4.67;3.73;;;6.60;99.90;;;7.30;100.00;98570.50;5181178;28;20218;-65
2021/12/31 06:15:13;;;;;;;5.13;4.17;;;6.70;99.90;;;7.34;100.00;98571.63;5178112;28;20677;-67
2021/12/31 06:17:46;;;;;;;4.50;4.10;;;6.70;99.90;;;7.38;100.00;98569.47;5179108;28;20213;-65
2021/12/31 06:20:20;;;;;;;4.57;4.17;;;6.70;99.90;;;7.42;100.00;98585.84;5174829;28;20208;-65
2021/12/31 06:22:53;;;;;;;5.03;4.53;;;6.70;99.90;;;7.38;100.00;98584.72;5182274;28;20226;-65
2021/12/31 06:25:27;;;;;;;4.87;4.40;;;6.80;99.90;;;7.39;100.00;98580.53;5180345;28;20206;-65
2021/12/31 06:28:02;;;;;;;5.33;4.17;;;6.80;99.90;;;7.36;100.00;98575.19;5182352;28;20203;-65
2021/12/31 06:30:35;;;;;;;4.57;4.17;;;6.70;99.90;;;7.23;100.00;98574.16;5176665;28;20213;-65
2021/12/31 06:33:08;;;;;;;6.07;4.40;;;6.60;99.90;;;7.27;100.00;98569.31;5183692;28;20219;-64
2021/12/31 06:35:41;;;;;;;5.80;4.70;;;6.60;99.90;;;7.28;100.00;98577.09;5178812;28;20587;-64
2021/12/31 06:38:14;;;;;;;8.20;4.40;;;6.60;99.90;;;7.23;100.00;98579.25;5180199;28;20227;-65
2021/12/31 06:40:47;;;;;;;4.57;3.77;;;6.70;99.90;;;7.20;100.00;98573.91;5178558;28;20211;-65
2021/12/31 06:43:21;;;;;;;6.93;5.40;;;6.60;99.90;;;7.28;100.00;98586.38;5180727;28;20227;-65
2021/12/31 06:45:54;;;;;;;6.67;5.47;;;6.60;99.90;;;7.27;100.00;98592.22;5180983;28;20198;-64
2021/12/31 06:48:28;;;;;;;7.47;6.03;;;6.70;99.90;;;7.31;100.00;98599.34;5180168;28;20209;-65
2021/12/31 06:51:01;;;;;;;4.90;4.50;;;6.60;99.90;;;7.26;100.00;98586.25;5179936;28;20240;-65
2021/12/31 06:53:34;;;;;;;4.10;3.77;;;6.50;99.90;;;7.20;100.00;98598.47;5179461;28;20226;-65
2021/12/31 06:56:07;;;;;;;6.03;4.10;;;6.50;99.90;;;7.17;100.00;98595.66;5181511;28;20210;-64
2021/12/31 06:58:43;;;;;;;5.17;4.63;;;6.50;99.90;;;7.12;100.00;98602.91;5178984;28;20215;-65
2021/12/31 07:01:21;;;;;;;5.20;4.70;;;6.40;99.90;;;7.12;100.00;98587.66;5178663;28;20788;-65
2021/12/31 07:03:54;;;;;;;5.83;4.83;;;6.30;99.90;;;6.97;100.00;98591.50;5176452;28;20199;-65
2021/12/31 07:06:27;;;;;;;4.37;3.97;;;6.20;99.90;;;6.93;100.00;98597.09;5178859;28;20195;-65
2021/12/31 07:09:00;;;;;;;4.67;4.27;;;6.20;99.90;;;6.89;100.00;98595.03;5180385;28;20306;-65
2021/12/31 07:11:33;;;;;;;4.57;4.17;;;6.20;99.90;;;6.90;100.00;98594.28;5179207;28;20625;-65
2021/12/31 07:14:11;;;;;;;4.03;3.73;;;6.30;99.90;;;6.89;100.00;98602.66;5181117;28;20190;-65
2021/12/31 07:16:44;;;;;;;5.83;5.33;;;6.20;99.90;;;6.90;100.00;98604.47;5180328;28;20199;-65
2021/12/31 07:19:17;;;;;;;6.60;6.00;;;6.20;99.90;;;6.87;100.00;98601.66;5180019;28;20222;-65
2021/12/31 07:21:50;;;;;;;9.80;6.93;;;6.20;99.90;;;6.86;100.00;98604.94;5179518;28;20230;-65
2021/12/31 07:24:23;;;;;;;9.23;8.10;;;6.20;99.90;;;6.91;100.00;98618.94;5188875;22;20240;-65
2021/12/31 07:26:56;;;;;;;8.70;8.00;;;6.30;99.90;;;6.93;100.00;98617.41;5181899;28;20290;-65
2021/12/31 07:29:31;;;;;;;8.27;7.40;;;6.30;99.90;;;6.94;100.00;98612.44;5181332;28;20225;-66
2021/12/31 07:32:05;;;;;;;7.27;6.57;;;6.20;99.90;;;6.93;100.00;98619.97;5180202;28;20210;-65
2021/12/31 07:34:38;;;;;;;14.23;8.97;;;6.20;99.90;;;6.91;100.00;98614.75;5159917;28;20211;-64
2021/12/31 07:37:11;;;;;;;9.00;8.13;;;6.20;99.90;;;6.90;100.00;98612.97;5158607;28;20207;-64
2021/12/31 07:39:47;;;;;;;14.70;10.33;;;6.20;99.90;;;6.90;100.00;98607.88;5156269;28;20238;-64
2021/12/31 07:42:20;;;;;;;10.43;5.00;;;6.20;99.90;;;6.88;100.00;98598.34;5157432;28;20203;-64
2021/12/31 07:44:54;;;;;;;14.97;9.27;;;6.20;99.90;;;6.90;100.00;98596.84;5157918;28;20207;-65
2021/12/31 07:47:27;;;;;;;29.63;9.33;;;6.30;99.90;;;6.85;100.00;98603.19;5160657;28;20199;-64
2021/12/31 07:50:00;;;;;;;15.83;5.73;;;6.20;99.90;;;6.86;100.00;98600.75;5160967;28;20195;-64
2021/12/31 07:52:33;;;;;;;5.60;5.20;;;6.20;99.90;;;6.85;100.00;98600.66;5160458;28;20241;-65
2021/12/31 07:55:07;;;;;;;5.97;5.47;;;6.20;99.90;;;6.91;100.00;98593.53;5160718;28;20210;-65
2021/12/31 07:57:40;;;;;;;6.23;5.73;;;6.30;99.90;;;6.93;100.00;98602.19;5160383;28;20195;-66
2021/12/31 08:00:16;;;;;;;5.83;5.33;;;6.40;99.90;;;6.95;100.00;98600.63;5160040;28;20230;-64
2021/12/31 08:02:50;;;;;;;6.80;5.50;;;6.30;99.90;;;7.00;100.00;98604.44;5159068;28;20313;-65
2021/12/31 08:05:23;;;;;;;5.13;4.73;;;6.30;99.90;;;7.01;100.00;98606.25;5161262;28;20210;-65
2021/12/31 08:07:56;;;;;;;243.10;19.37;;;6.30;99.90;;;6.97;100.00;98599.13;5161306;28;20294;-65
2021/12/31 08:10:31;;;;;;;41.03;7.63;;;6.30;99.90;;;6.93;100.00;98592.00;5161088;28;20221;-64
2021/12/31 08:13:25;;;;;;;5.37;4.97;;;6.20;99.90;;;6.99;100.00;98603.56;5160666;28;20234;-65
2021/12/31 08:16:00;;;;;;;8.27;5.23;;;6.30;99.90;;;7.08;100.00;98608.50;5163462;28;20203;-65
2021/12/31 08:18:33;;;;;;;5.87;5.37;;;6.40;99.90;;;7.17;100.00;98610.91;5163850;28;20226;-66
2021/12/31 08:21:07;;;;;;;6.93;5.83;;;6.50;99.90;;;7.25;100.00;98601.38;5163019;28;20209;-64
2021/12/31 08:23:40;;;;;;;7.00;6.30;;;6.60;99.90;;;7.29;100.00;98609.38;5161593;28;20230;-64
2021/12/31 08:26:13;;;;;;;6.57;5.77;;;6.60;99.90;;;7.36;100.00;98615.88;5163837;28;20294;-64
2021/12/31 08:28:46;;;;;;;8.30;5.37;;;6.70;99.90;;;7.46;100.00;98613.28;5160664;28;20202;-64
2021/12/31 08:31:21;;;;;;;8.20;5.97;;;6.70;99.90;;;7.50;100.00;98605.16;5162133;28;20203;-65
2021/12/31 08:33:54;;;;;;;20.70;6.83;;;6.70;99.90;;;7.50;100.00;98609.34;5159052;28;20233;-63
2021/12/31 08:36:27;;;;;;;13.20;7.57;;;6.80;99.90;;;7.47;100.00;98610.00;5163313;28;20195;-64
2021/12/31 08:39:00;;;;;;;9.63;7.37;;;6.70;99.90;;;7.49;100.00;98612.66;5161816;28;20318;-64
2021/12/31 08:41:33;;;;;;;10.93;8.17;;;6.80;99.90;;;7.50;100.00;98615.34;5162855;28;20203;-65
2021/12/31 08:44:20;;;;;;;22.47;8.83;;;6.80;99.90;;;7.57;100.00;98614.16;5161582;28;20313;-65
2021/12/31 08:46:56;;;;;;;18.03;7.97;;;6.80;99.90;;;7.57;100.00;98607.41;5160813;28;20207;-64
2021/12/31 08:49:29;;;;;;;8.33;7.63;;;6.80;99.90;;;7.56;100.00;98608.19;5161181;28;20206;-64
2021/12/31 08:52:03;;;;;;;37.43;12.70;;;6.80;99.90;;;7.53;100.00;98610.50;5160064;28;20199;-64
2021/12/31 08:54:37;;;;;;;13.37;10.60;;;6.80;99.90;;;7.61;100.00;98601.84;5159676;28;20223;-64
2021/12/31 08:57:10;;;;;;;11.20;10.00;;;6.90;99.90;;;7.55;100.00;98603.84;5163522;28;20207;-65
2021/12/31 08:59:43;;;;;;;16.67;14.33;;;6.80;99.90;;;7.63;100.00;98602.81;5165421;28;20638;-65
2021/12/31 09:02:19;;;;;;;16.13;13.00;;;6.90;99.90;;;7.93;100.00;98595.88;5163733;28;20289;-66
2021/12/31 09:04:52;;;;;;;22.30;12.33;;;7.10;99.90;;;7.82;100.00;98594.13;5164687;28;20195;-65
2021/12/31 09:07:26;;;;;;;19.77;9.60;;;7.20;99.90;;;7.80;100.00;98606.72;5167394;28;20206;-65
2021/12/31 09:10:00;;;;;;;18.33;9.37;;;7.10;99.90;;;7.83;100.00;98598.44;5165150;28;20738;-66
2021/12/31 09:12:33;;;;;;;9.63;8.60;;;7.20;99.90;;;7.88;100.00;98595.50;5161051;28;20223;-67
2021/12/31 09:15:07;;;;;;;13.03;7.70;;;7.20;99.90;;;7.91;100.00;98592.31;5161373;28;20588;-66
2021/12/31 09:17:42;;;;;;;8.70;7.90;;;7.30;99.90;;;8.05;100.00;98599.38;5160898;28;20209;-66
2021/12/31 09:20:16;;;;;;;8.53;7.80;;;7.50;99.90;;;8.17;100.00;98588.38;5162876;28;20606;-67
2021/12/31 09:22:49;;;;;;;11.50;10.30;;;7.60;99.90;;;8.41;100.00;98594.50;5161784;28;20322;-64
2021/12/31 09:25:23;;;;;;;9.57;8.77;;;7.70;99.90;;;8.47;100.00;98595.88;5160253;28;20199;-67
2021/12/31 09:27:56;;;;;;;15.23;13.65;;;8.00;99.90;;;8.71;100.00;98596.84;5162606;28;20203;-65
2021/12/31 09:30:29;;;;;;;15.57;13.88;;;8.20;99.90;;;8.83;100.00;98596.91;5161332;28;20754;-66
2021/12/31 09:33:03;;;;;;;10.30;9.30;;;8.30;99.90;;;8.83;100.00;98593.47;5162078;28;20219;-67
2021/12/31 09:35:39;;;;;;;10.65;9.48;;;8.30;99.90;;;8.94;100.00;98603.69;5162313;28;20206;-66
2021/12/31 09:38:12;;;;;;;12.88;11.02;;;8.40;99.90;;;9.01;100.00;98605.94;5162080;28;20202;-65
2021/12/31 09:40:45;;;;;;;11.73;9.93;;;8.40;99.90;;;9.08;100.00;98599.63;5162306;28;20219;-65
2021/12/31 09:43:19;;;;;;;12.50;10.02;;;8.40;99.90;;;9.13;100.00;98592.31;5161899;28;20593;-66
2021/12/31 09:45:53;;;;;;;11.90;10.27;;;8.50;99.90;;;9.13;100.00;98592.31;5161521;28;20202;-65
2021/12/31 09:48:27;;;;;;;11.40;10.23;;;8.50;99.90;;;9.03;100.00;98596.72;5161392;28;20199;-65
2021/12/31 09:51:05;;;;;;;8.57;7.78;;;8.50;99.90;;;9.08;100.00;98588.56;5160850;28;20217;-65
2021/12/31 09:53:39;;;;;;;7.75;7.05;;;8.50;99.90;;;9.25;100.00;98588.13;5159608;28;20590;-65
2021/12/31 09:56:13;;;;;;;9.70;8.90;;;8.70;99.90;;;9.50;100.00;98589.91;5158967;28;20208;-65
2021/12/31 09:58:46;;;;;;;6.78;6.18;;;8.90;99.90;;;9.75;100.00;98582.38;5158185;28;20301;-66
2021/12/31 10:01:19;;;;;;;7.78;7.18;;;9.10;99.90;;;9.71;100.00;98583.84;5161069;28;20195;-65
2021/12/31 10:04:00;;;;;;;6.15;5.65;;;9.20;99.90;;;9.76;100.00;98579.94;5162659;28;20594;-64
2021/12/31 10:06:33;;;;;;;14.38;12.90;;;9.30;99.90;;;9.83;100.00;98569.38;5162086;28;20203;-65
2021/12/31 10:09:06;;;;;;;9.23;8.38;;;9.40;99.90;;;9.93;100.00;98563.28;5161884;28;20209;-65
2021/12/31 10:11:41;;;;;;;8.23;7.60;;;9.50;99.90;;;10.10;100.00;98559.34;5159765;28;20200;-65
2021/12/31 10:14:14;;;;;;;7.30;6.70;;;9.70;99.90;;;10.41;100.00;98553.84;5161209;28;20702;-65
2021/12/31 10:16:47;;;;;;;6.15;5.65;;;9.90;99.90;;;10.45;100.00;98555.84;5162190;28;20680;-65
2021/12/31 10:19:21;;;;;;;5.97;5.57;;;10.00;99.90;;;10.60;100.00;98562.88;5160664;28;20219;-65
2021/12/31 10:21:56;;;;;;;6.30;5.78;;;10.10;99.90;;;10.73;100.00;98567.16;5160774;28;20216;-65
2021/12/31 10:24:36;;;;;;;5.78;5.25;;;10.20;99.90;;;10.83;100.00;98556.75;5159764;28;20234;-65
2021/12/31 10:27:20;;;;;;;5.10;4.80;;;10.40;99.90;;;11.02;100.00;98564.00;5161400;28;20206;-65
2021/12/31 10:29:55;;;;;;;5.10;4.70;;;10.50;99.90;;;11.05;100.00;98556.53;5161652;28;20195;-65
2021/12/31 10:32:30;;;;;;;4.60;4.30;;;10.50;99.90;;;11.04;100.00;98554.75;5160677;28;20223;-65
2021/12/31 10:35:11;;;;;;;4.97;4.57;;;10.50;99.90;;;11.16;100.00;98548.66;5162836;28;20293;-65
2021/12/31 10:37:46;;;;;;;5.95;5.55;;;10.50;99.90;;;11.17;100.00;98548.78;5160261;28;20731;-65
2021/12/31 10:40:31;;;;;;;5.68;5.13;;;10.60;99.90;;;11.22;100.00;98541.41;5161246;28;20721;-65
2021/12/31 10:43:15;;;;;;;5.55;5.13;;;10.70;99.90;;;11.32;100.00;98535.19;5161922;28;20223;-65
2021/12/31 10:46:02;;;;;;;6.07;5.57;;;10.80;99.90;;;11.43;100.00;98537.66;5161927;28;20249;-65
2021/12/31 10:48:41;;;;;;;5.97;5.40;;;10.90;99.90;;;11.56;100.00;98526.56;5160897;28;20207;-65
2021/12/31 10:51:17;;;;;;;5.43;5.03;;;11.00;99.90;;;11.59;100.00;98521.63;5160425;28;20229;-65